Time;durP1;ratioP1;P1;durP2;ratioP2;P2;SDS_P1;SDS_P2;PMS_P1;PMS_P2;Temp;Humidity;BMP_temperature;BMP_pressure;BME280_temperature;BME280_humidity;BME280_pressure;Samples;Min_cycle;Max_cycle;Signal;HPM_P1;HPM_P2
2023/05/08 00:02:03;;;;;;;;;;;;;;;20.42;65.60;101248.25;4959057;28;19925;-83
2023/05/08 00:04:29;;;;;;;;;;;;;;;20.47;63.03;101247.69;4946666;28;20321;-83
2023/05/08 00:06:56;;;;;;;;;;;;;;;20.45;63.39;101241.63;4925623;28;20012;-83
2023/05/08 00:09:23;;;;;;;;;;;;;;;20.38;63.35;101257.72;4929197;28;20823;-83
2023/05/08 00:11:51;;;;;;;;;;;;;;;20.35;64.19;101273.44;4948956;28;20438;-83
2023/05/08 00:14:17;;;;;;;;;;;;;;;20.27;65.31;101277.88;4940596;28;20170;-82
2023/05/08 00:16:44;;;;;;;;;;;;;;;20.16;66.38;101270.25;4930042;28;19922;-82
2023/05/08 00:19:10;;;;;;;;;;;;;;;20.15;66.75;101279.34;4945546;28;20025;-82
2023/05/08 00:21:37;;;;;;;;;;;;;;;20.09;67.25;101281.94;4968202;28;19925;-82
2023/05/08 00:24:05;;;;;;;;;;;;;;;19.98;67.54;101291.31;4947085;28;19926;-82
2023/05/08 00:26:31;;;;;;;;;;;;;;;19.85;68.54;101295.47;4956392;28;19949;-83
2023/05/08 00:28:58;;;;;;;;;;;;;;;19.75;69.19;101299.41;4947628;28;20336;-82
2023/05/08 00:31:25;;;;;;;;;;;;;;;19.68;69.98;101298.44;4938942;28;19984;-83
2023/05/08 00:33:51;;;;;;;;;;;;;;;19.62;70.38;101294.56;4941373;28;20070;-83
2023/05/08 00:36:18;;;;;;;;;;;;;;;19.51;71.07;101293.13;4958056;28;19972;-82
2023/05/08 00:38:45;;;;;;;;;;;;;;;19.45;71.63;101293.00;4942062;28;20008;-82
2023/05/08 00:41:11;;;;;;;;;;;;;;;19.37;71.83;101291.19;4930866;28;20304;-83
2023/05/08 00:43:38;;;;;;;;;;;;;;;19.29;72.31;101288.56;4956108;28;19971;-82
2023/05/08 00:46:05;;;;;;;;;;;;;;;19.22;72.39;101293.78;4953736;28;20344;-83
2023/05/08 00:48:35;;;;;;;;;;;;;;;19.14;72.90;101301.91;4946290;28;19925;-84
2023/05/08 00:51:05;;;;;;;;;;;;;;;19.13;73.10;101292.19;4962036;28;20414;-81
2023/05/08 00:53:32;;;;;;;;;;;;;;;19.07;73.36;101284.81;4971962;28;19925;-83
2023/05/08 00:55:59;;;;;;;;;;;;;;;18.99;73.78;101286.50;4959089;28;19928;-83
2023/05/08 00:58:26;;;;;;;;;;;;;;;18.70;73.57;101229.78;4944469;28;19928;-82
2023/05/08 01:00:54;;;;;;;;;;;;;;;19.05;73.43;101282.28;4945215;28;19928;-83
2023/05/08 01:03:22;;;;;;;;;;;;;;;19.03;73.85;101283.47;4954844;28;19969;-82
2023/05/08 01:05:52;;;;;;;;;;;;;;;19.03;74.29;101273.56;4942874;28;19953;-83
2023/05/08 01:08:18;;;;;;;;;;;;;;;19.08;73.64;101278.38;4946331;28;19964;-83
2023/05/08 01:11:00;;;;;;;;;;;;;;;19.10;73.80;101284.44;4938676;28;19933;-83
2023/05/08 01:13:29;;;;;;;;;;;;;;;19.15;73.51;101271.28;4946894;28;19922;-83
2023/05/08 01:16:16;;;;;;;;;;;;;;;19.28;73.18;101281.50;4938905;28;20420;-83
2023/05/08 01:18:49;;;;;;;;;;;;;;;19.06;72.20;101230.16;4945294;28;20283;-83
2023/05/08 01:21:28;;;;;;;;;;;;;;;19.36;72.55;101284.97;4948735;28;19922;-83
2023/05/08 01:24:10;;;;;;;;;;;;;;;19.40;72.12;101285.47;4968700;28;20601;-82
2023/05/08 01:26:46;;;;;;;;;;;;;;;19.42;72.12;101294.22;4964182;28;20379;-81
2023/05/08 01:29:16;;;;;;;;;;;;;;;19.50;71.76;101293.31;4942834;28;19996;-84
2023/05/08 01:32:01;;;;;;;;;;;;;;;19.50;71.90;101294.16;4960286;28;19976;-82
2023/05/08 01:34:32;;;;;;;;;;;;;;;19.44;72.43;101302.91;4916222;28;20378;-84
2023/05/08 01:37:11;;;;;;;;;;;;;;;19.48;72.31;101300.72;4944059;28;20311;-84
2023/05/08 01:39:58;;;;;;;;;;;;;;;19.52;71.82;101300.19;4932112;28;19921;-83
2023/05/08 01:42:28;;;;;;;;;;;;;;;19.55;71.62;101301.69;4936597;28;19922;-84
2023/05/08 01:45:06;;;;;;;;;;;;;;;19.53;72.06;101301.03;4963395;28;19925;-84
2023/05/08 01:47:35;;;;;;;;;;;;;;;19.55;71.80;101296.31;4962396;28;20318;-84
2023/05/08 01:50:06;;;;;;;;;;;;;;;19.60;71.42;101312.75;4947611;28;19928;-82
2023/05/08 01:52:35;;;;;;;;;;;;;;;19.55;71.40;101316.00;4965963;28;20301;-81
2023/05/08 01:55:08;;;;;;;;;;;;;;;19.51;72.03;101319.22;4958354;28;20211;-83
2023/05/08 01:57:37;;;;;;;;;;;;;;;19.52;72.21;101310.13;4934246;28;19945;-83
2023/05/08 02:00:04;;;;;;;;;;;;;;;19.55;72.35;101318.69;4932562;28;20471;-82
2023/05/08 02:02:31;;;;;;;;;;;;;;;19.62;71.44;101324.19;4911658;28;19921;-83
2023/05/08 02:05:01;;;;;;;;;;;;;;;19.65;70.92;101321.16;4948024;28;19930;-83
2023/05/08 02:07:28;;;;;;;;;;;;;;;19.29;70.77;101270.53;4922644;28;19926;-83
2023/05/08 02:09:56;;;;;;;;;;;;;;;19.58;71.34;101325.56;4937309;28;20245;-83
2023/05/08 02:12:24;;;;;;;;;;;;;;;19.56;71.11;101323.03;4924625;28;20830;-82
2023/05/08 02:14:53;;;;;;;;;;;;;;;19.54;71.41;101332.31;4932101;28;19926;-82
2023/05/08 02:17:20;;;;;;;;;;;;;;;19.51;71.54;101330.81;4917998;28;19953;-83
2023/05/08 02:19:48;;;;;;;;;;;;;;;19.47;71.50;101329.53;4923488;28;20722;-83
2023/05/08 02:22:15;;;;;;;;;;;;;;;19.40;71.69;101340.16;4919536;28;20373;-83
2023/05/08 02:24:46;;;;;;;;;;;;;;;19.42;71.59;101335.44;4942331;28;19976;-83
2023/05/08 02:27:13;;;;;;;;;;;;;;;19.37;71.83;101329.75;4956819;28;19980;-83
2023/05/08 02:29:48;;;;;;;;;;;;;;;19.37;71.70;101335.13;4921454;28;19922;-83
2023/05/08 02:32:16;;;;;;;;;;;;;;;19.35;71.88;101331.75;4906581;28;20150;-84
2023/05/08 02:34:43;;;;;;;;;;;;;;;19.34;71.77;101330.06;4897546;28;20021;-82
2023/05/08 02:37:27;;;;;;;;;;;;;;;19.33;71.97;101333.78;4910896;28;19922;-83
2023/05/08 02:39:57;;;;;;;;;;;;;;;19.35;71.88;101330.94;4898399;28;19937;-83
2023/05/08 02:42:25;;;;;;;;;;;;;;;18.98;71.95;101275.91;4900459;28;20662;-84
2023/05/08 02:44:51;;;;;;;;;;;;;;;19.39;70.88;101333.09;4910239;28;19926;-83
2023/05/08 02:47:24;;;;;;;;;;;;;;;19.38;71.43;101330.56;4901666;28;20346;-81
2023/05/08 02:50:02;;;;;;;;;;;;;;;19.39;70.76;101335.78;4893829;28;19926;-83
2023/05/08 02:52:31;;;;;;;;;;;;;;;19.37;71.07;101329.75;4895393;28;19974;-81
2023/05/08 02:55:04;;;;;;;;;;;;;;;19.39;70.56;101329.53;4878754;29;20372;-84
2023/05/08 02:57:56;;;;;;;;;;;;;;;19.42;70.26;101319.28;4892111;28;19972;-83
2023/05/08 03:00:27;;;;;;;;;;;;;;;19.38;70.62;101320.63;4897327;28;20173;-83
2023/05/08 03:03:06;;;;;;;;;;;;;;;19.39;70.40;101321.47;4910568;28;19922;-83
2023/05/08 03:05:38;;;;;;;;;;;;;;;18.83;70.02;101230.09;4893593;29;20280;-82
2023/05/08 03:08:17;;;;;;;;;;;;;;;19.37;70.31;101318.09;4900013;29;19937;-81
2023/05/08 03:10:45;;;;;;;;;;;;;;;19.36;70.17;101317.28;4883069;28;19929;-83
2023/05/08 03:13:15;;;;;;;;;;;;;;;18.84;70.34;101226.41;4891770;28;19922;-83
2023/05/08 03:15:46;;;;;;;;;;;;;;;19.33;70.02;101312.25;4898876;28;20396;-83
2023/05/08 03:18:18;;;;;;;;;;;;;;;19.27;70.20;101325.56;4913446;28;20273;-83
2023/05/08 03:20:46;;;;;;;;;;;;;;;19.35;69.92;101325.53;4913962;28;20254;-83
2023/05/08 03:23:14;;;;;;;;;;;;;;;19.29;70.19;101316.31;4972603;28;19925;-82
2023/05/08 03:25:42;;;;;;;;;;;;;;;19.26;70.46;101321.22;4942141;28;19926;-82
2023/05/08 03:28:09;;;;;;;;;;;;;;;18.93;70.15;101279.16;4915608;28;19945;-82
2023/05/08 03:30:36;;;;;;;;;;;;;;;19.30;70.29;101330.63;4916062;28;20024;-82
2023/05/08 03:33:04;;;;;;;;;;;;;;;19.31;69.91;101346.59;4934942;28;19945;-83
2023/05/08 03:35:31;;;;;;;;;;;;;;;19.30;69.72;101339.53;4919321;28;19922;-82
2023/05/08 03:37:57;;;;;;;;;;;;;;;19.29;69.85;101342.38;4920059;28;20108;-83
2023/05/08 03:40:24;;;;;;;;;;;;;;;19.24;70.03;101350.16;4910377;28;19970;-83
2023/05/08 03:42:51;;;;;;;;;;;;;;;19.20;70.10;101350.50;4917346;28;20716;-81
2023/05/08 03:45:18;;;;;;;;;;;;;;;19.21;70.17;101345.97;4931544;28;19926;-82
2023/05/08 03:47:46;;;;;;;;;;;;;;;19.28;70.08;101351.50;4901253;28;20109;-83
2023/05/08 03:50:14;;;;;;;;;;;;;;;19.23;69.98;101345.81;4893246;28;20238;-83
2023/05/08 03:52:41;;;;;;;;;;;;;;;19.24;70.03;101348.28;4933026;28;19922;-83
2023/05/08 03:55:08;;;;;;;;;;;;;;;19.25;70.17;101357.19;4919665;28;19925;-82
2023/05/08 03:57:39;;;;;;;;;;;;;;;19.21;70.13;101351.34;4906238;28;20099;-82
2023/05/08 04:00:10;;;;;;;;;;;;;;;19.19;70.46;101353.38;4921415;28;20577;-82
2023/05/08 04:02:54;;;;;;;;;;;;;;;19.19;70.73;101358.75;4933701;28;19922;-83
2023/05/08 04:05:24;;;;;;;;;;;;;;;19.21;70.35;101359.41;4919879;28;20200;-81
2023/05/08 04:08:07;;;;;;;;;;;;;;;19.28;70.03;101359.56;4913293;28;19921;-83
2023/05/08 04:10:41;;;;;;;;;;;;;;;19.31;69.94;101361.91;4899346;28;19922;-82
2023/05/08 04:13:14;;;;;;;;;;;;;;;19.30;69.82;101361.06;4908322;28;20367;-83
2023/05/08 04:16:13;;;;;;;;;;;;;;;19.26;70.11;101365.13;4920398;28;19969;-83
2023/05/08 04:18:44;;;;;;;;;;;;;;;18.96;70.05;101324.53;4923239;28;20310;-82
2023/05/08 04:21:15;;;;;;;;;;;;;;;19.28;70.03;101371.16;4959072;28;20251;-83
2023/05/08 04:23:48;;;;;;;;;;;;;;;19.12;70.08;101353.22;4967153;28;20315;-84
2023/05/08 04:26:16;;;;;;;;;;;;;;;19.30;70.50;101382.59;4931214;28;19949;-82
2023/05/08 04:28:43;;;;;;;;;;;;;;;19.31;70.23;101389.66;4933979;28;20580;-83
2023/05/08 04:31:09;;;;;;;;;;;;;;;19.28;70.21;101392.69;4948844;28;19974;-83
2023/05/08 04:33:37;;;;;;;;;;;;;;;18.97;70.37;101334.28;4894954;29;19945;-83
2023/05/08 04:36:04;;;;;;;;;;;;;;;19.30;70.60;101395.22;4928992;28;20388;-83
2023/05/08 04:38:34;;;;;;;;;;;;;;;19.30;70.64;101393.38;4948107;28;19929;-83
2023/05/08 04:41:01;;;;;;;;;;;;;;;18.96;70.46;101331.78;4959458;28;19928;-83
2023/05/08 04:43:28;;;;;;;;;;;;;;;19.34;70.33;101394.69;4965246;28;19922;-83
2023/05/08 04:45:57;;;;;;;;;;;;;;;19.31;70.33;101389.66;4979229;28;19922;-83
2023/05/08 04:48:24;;;;;;;;;;;;;;;18.95;70.56;101336.28;4964269;28;19953;-83
2023/05/08 04:50:51;;;;;;;;;;;;;;;19.27;71.01;101388.31;4931901;28;19929;-85
2023/05/08 04:53:18;;;;;;;;;;;;;;;19.31;70.81;101399.59;4964511;28;19928;-83
2023/05/08 04:55:44;;;;;;;;;;;;;;;19.33;70.50;101395.72;4949411;28;20133;-82
2023/05/08 04:58:11;;;;;;;;;;;;;;;19.36;70.18;101397.22;4932518;28;19947;-83
2023/05/08 05:00:38;;;;;;;;;;;;;;;19.42;69.58;101407.28;4948227;28;19933;-83
2023/05/08 05:03:05;;;;;;;;;;;;;;;19.41;69.85;101403.75;4943270;28;20005;-83
2023/05/08 05:05:33;;;;;;;;;;;;;;;19.42;70.17;101402.75;4939905;28;19922;-82
2023/05/08 05:08:04;;;;;;;;;;;;;;;19.43;69.66;101403.56;4960569;28;19922;-83
2023/05/08 05:10:31;;;;;;;;;;;;;;;19.48;70.89;101405.75;4945934;28;20453;-82
2023/05/08 05:12:57;;;;;;;;;;;;;;;19.50;70.15;101406.41;4952163;28;19997;-83
2023/05/08 05:15:24;;;;;;;;;;;;;;;19.51;69.44;101406.22;4941969;28;19922;-81
2023/05/08 05:17:51;;;;;;;;;;;;;;;19.58;69.50;101411.75;4952286;28;19929;-82
2023/05/08 05:20:18;;;;;;;;;;;;;;;19.60;69.07;101420.50;4959098;28;20288;-84
2023/05/08 05:22:44;;;;;;;;;;;;;;;19.62;69.14;101413.09;4949506;28;19922;-84
2023/05/08 05:25:11;;;;;;;;;;;;;;;19.32;68.55;101364.44;4950384;28;19922;-83
2023/05/08 05:27:38;;;;;;;;;;;;;;;19.69;68.11;101422.16;4935509;28;20424;-83
2023/05/08 05:30:08;;;;;;;;;;;;;;;19.72;67.59;101419.13;4941180;28;19922;-83
2023/05/08 05:32:34;;;;;;;;;;;;;;;19.72;67.65;101423.69;4948415;28;19922;-81
2023/05/08 05:35:02;;;;;;;;;;;;;;;19.13;68.19;101322.63;4945533;28;19921;-82
2023/05/08 05:37:28;;;;;;;;;;;;;;;19.80;67.77;101432.53;4970438;28;19925;-84
2023/05/08 05:39:55;;;;;;;;;;;;;;;19.83;68.08;101436.72;4956830;28;19929;-82
2023/05/08 05:42:22;;;;;;;;;;;;;;;19.84;68.58;101433.88;4958950;28;19953;-82
2023/05/08 05:44:48;;;;;;;;;;;;;;;19.81;68.12;101439.63;4968238;28;20169;-82
2023/05/08 05:47:15;;;;;;;;;;;;;;;19.82;68.46;101435.91;4966449;28;20303;-82
2023/05/08 05:49:45;;;;;;;;;;;;;;;19.85;68.46;101435.56;4937333;28;19922;-84
2023/05/08 05:52:13;;;;;;;;;;;;;;;19.92;67.79;101446.44;4959864;28;19933;-85
2023/05/08 05:54:40;;;;;;;;;;;;;;;19.91;66.71;101443.94;4949275;28;20029;-82
2023/05/08 05:57:07;;;;;;;;;;;;;;;19.93;65.75;101441.88;4951030;28;19976;-84
2023/05/08 05:59:36;;;;;;;;;;;;;;;19.84;65.57;101447.34;4963236;28;19933;-82
2023/05/08 06:02:05;;;;;;;;;;;;;;;19.74;65.86;101454.81;4955217;28;19921;-83
2023/05/08 06:04:32;;;;;;;;;;;;;;;19.72;66.52;101448.75;4952863;28;20294;-83
2023/05/08 06:06:58;;;;;;;;;;;;;;;19.73;65.98;101452.28;4949649;28;19922;-84
2023/05/08 06:09:27;;;;;;;;;;;;;;;19.68;66.16;101450.09;4950894;28;20003;-83
2023/05/08 06:11:55;;;;;;;;;;;;;;;19.62;66.60;101448.09;4968328;28;20206;-82
2023/05/08 06:14:22;;;;;;;;;;;;;;;19.67;66.23;101448.41;4954861;28;20304;-84
2023/05/08 06:16:49;;;;;;;;;;;;;;;19.68;65.97;101450.09;4952557;28;19980;-83
2023/05/08 06:19:16;;;;;;;;;;;;;;;19.53;66.80;101451.84;4925956;28;19926;-83
2023/05/08 06:21:43;;;;;;;;;;;;;;;19.55;66.92;101447.13;4940781;28;20158;-83
2023/05/08 06:24:14;;;;;;;;;;;;;;;19.50;66.93;101446.81;4940146;28;19926;-83
2023/05/08 06:26:43;;;;;;;;;;;;;;;19.52;66.90;101450.16;4929385;28;20012;-83
2023/05/08 06:29:09;;;;;;;;;;;;;;;19.43;67.63;101458.25;4904432;28;20146;-82
2023/05/08 06:31:36;;;;;;;;;;;;;;;19.43;67.44;101463.66;4938952;28;20245;-82
2023/05/08 06:34:03;;;;;;;;;;;;;;;19.39;67.68;101465.03;4960035;28;19929;-83
2023/05/08 06:36:30;;;;;;;;;;;;;;;19.33;68.22;101463.00;4961273;28;20121;-83
2023/05/08 06:38:57;;;;;;;;;;;;;;;19.34;68.17;101453.91;4946512;28;20008;-84
2023/05/08 06:41:23;;;;;;;;;;;;;;;19.38;68.92;101452.56;4939652;28;20435;-83
2023/05/08 06:43:50;;;;;;;;;;;;;;;19.44;68.65;101437.56;4938759;28;19936;-83
2023/05/08 06:46:18;;;;;;;;;;;;;;;19.55;68.39;101444.44;4944075;28;20745;-82
2023/05/08 06:48:48;;;;;;;;;;;;;;;19.65;67.76;101455.81;4937930;28;19922;-81
2023/05/08 06:51:15;;;;;;;;;;;;;;;19.63;68.69;101452.47;4951886;28;20501;-81
2023/05/08 06:53:42;;;;;;;;;;;;;;;19.67;68.23;101461.03;4971822;28;20423;-82
2023/05/08 06:56:10;;;;;;;;;;;;;;;19.47;68.62;101410.28;4946915;28;19979;-82
2023/05/08 06:58:38;;;;;;;;;;;;;;;19.87;67.45;101453.41;4946489;28;20288;-82
2023/05/08 07:01:08;;;;;;;;;;;;;;;19.98;67.08;101450.31;4934307;28;19982;-83
2023/05/08 07:03:40;;;;;;;;;;;;;;;20.05;66.95;101456.66;4961803;28;19945;-84
2023/05/08 07:06:16;;;;;;;;;;;;;;;20.27;66.98;101458.53;4941808;28;20379;-82
2023/05/08 07:08:43;;;;;;;;;;;;;;;20.31;66.69;101461.69;4931545;28;19930;-82
2023/05/08 07:11:10;;;;;;;;;;;;;;;20.28;66.49;101462.06;4921908;28;19933;-81
2023/05/08 07:13:42;;;;;;;;;;;;;;;20.35;67.01;101462.19;4947312;28;20376;-83
2023/05/08 07:16:09;;;;;;;;;;;;;;;20.38;66.29;101456.44;4957766;28;19933;-82
2023/05/08 07:18:37;;;;;;;;;;;;;;;20.38;65.74;101451.88;4927959;28;19922;-81
2023/05/08 07:21:04;;;;;;;;;;;;;;;20.46;67.36;101456.34;4937665;28;19929;-82
2023/05/08 07:23:31;;;;;;;;;;;;;;;20.62;66.70;101458.13;4927874;28;20236;-80
2023/05/08 07:25:58;;;;;;;;;;;;;;;20.73;65.97;101464.94;4903663;28;19922;-81
2023/05/08 07:28:27;;;;;;;;;;;;;;;20.53;66.05;101408.75;4942013;28;19921;-81
2023/05/08 07:30:56;;;;;;;;;;;;;;;20.86;65.65;101467.84;4967815;28;20008;-81
2023/05/08 07:33:22;;;;;;;;;;;;;;;20.98;64.60;101463.69;4959199;28;20810;-82
2023/05/08 07:35:49;;;;;;;;;;;;;;;21.07;64.42;101467.16;4946644;28;20356;-81
2023/05/08 07:38:16;;;;;;;;;;;;;;;20.85;63.96;101472.41;4931371;28;20467;-81
2023/05/08 07:40:47;;;;;;;;;;;;;;;20.94;64.95;101467.78;4915331;28;19981;-81
2023/05/08 07:43:18;;;;;;;;;;;;;;;21.12;64.15;101481.78;4931677;28;19922;-81
2023/05/08 07:45:44;;;;;;;;;;;;;;;20.94;64.75;101462.38;4958967;28;20411;-79
2023/05/08 07:48:11;;;;;;;;;;;;;;;20.96;64.87;101462.19;4947204;28;20355;-81
2023/05/08 07:50:38;;;;;;;;;;;;;;;21.09;64.63;101468.66;4902173;28;20053;-81
2023/05/08 07:53:05;;;;;;;;;;;;;;;21.16;63.96;101470.59;4953711;28;20235;-81
2023/05/08 07:55:31;;;;;;;;;;;;;;;21.20;63.91;101482.72;4945296;28;19926;-81
2023/05/08 07:57:58;;;;;;;;;;;;;;;20.85;63.92;101421.16;4922376;28;20319;-82
2023/05/08 08:00:29;;;;;;;;;;;;;;;21.13;63.52;101466.41;4905421;28;20327;-81
2023/05/08 08:02:58;;;;;;;;;;;;;;;21.09;63.77;101465.94;4933068;28;19922;-81
2023/05/08 08:05:25;;;;;;;;;;;;;;;21.17;64.27;101473.13;4937136;28;19933;-81
2023/05/08 08:07:52;;;;;;;;;;;;;;;21.34;63.60;101476.47;4950598;28;20052;-83
2023/05/08 08:10:24;;;;;;;;;;;;;;;21.26;63.13;101479.25;4985279;28;19936;-82
2023/05/08 08:12:51;;;;;;;;;;;;;;;21.21;63.67;101487.06;4984833;28;20357;-84
2023/05/08 08:15:29;;;;;;;;;;;;;;;21.50;63.55;101492.50;4979258;28;19977;-83
2023/05/08 08:18:10;;;;;;;;;;;;;;;21.13;62.19;101491.53;4929530;28;20062;-84
2023/05/08 08:20:37;;;;;;;;;;;;;;;21.06;62.97;101493.28;4969905;28;19921;-84
2023/05/08 08:23:05;;;;;;;;;;;;;;;21.24;63.10;101498.34;4996212;28;19921;-82
2023/05/08 08:25:31;;;;;;;;;;;;;;;20.84;64.03;101451.00;4978269;28;19922;-81
2023/05/08 08:27:59;;;;;;;;;;;;;;;20.75;64.00;101452.09;4929138;28;19929;-81
2023/05/08 08:30:25;;;;;;;;;;;;;;;21.03;63.88;101499.06;4942405;28;19977;-81
2023/05/08 08:33:00;;;;;;;;;;;;;;;21.03;63.67;101493.66;4921310;28;20304;-80
2023/05/08 08:35:28;;;;;;;;;;;;;;;21.04;63.61;101491.78;4946169;28;20661;-81
2023/05/08 08:37:55;;;;;;;;;;;;;;;21.13;63.81;101494.22;4940649;28;20075;-81
2023/05/08 08:40:22;;;;;;;;;;;;;;;21.16;63.17;101497.59;4956268;28;19994;-83
2023/05/08 08:42:50;;;;;;;;;;;;;;;21.29;63.04;101492.41;4951845;28;20288;-83
2023/05/08 08:45:23;;;;;;;;;;;;;;;21.36;63.45;101493.34;4954717;28;19922;-81
2023/05/08 08:47:54;;;;;;;;;;;;;;;21.30;62.88;101496.78;4935855;28;19929;-81
2023/05/08 08:50:30;;;;;;;;;;;;;;;21.35;61.98;101491.66;4926660;28;20177;-82
2023/05/08 08:53:11;;;;;;;;;;;;;;;21.23;62.99;101493.97;4958178;28;19968;-82
2023/05/08 08:55:44;;;;;;;;;;;;;;;21.16;62.48;101489.50;4922461;28;20194;-79
2023/05/08 08:58:26;;;;;;;;;;;;;;;21.28;63.09;101496.13;4907269;28;20222;-79
2023/05/08 09:00:56;;;;;;;;;;;;;;;21.40;63.05;101489.25;4909393;28;19926;-80
2023/05/08 09:03:23;;;;;;;;;;;;;;;21.70;60.81;101497.34;4937333;28;20056;-82
2023/05/08 09:05:52;;;;;;;;;;;;;;;21.87;60.24;101490.72;4943561;28;20012;-83
2023/05/08 09:08:19;;;;;;;;;;;;;;;21.69;61.49;101493.81;4958881;28;19926;-80
2023/05/08 09:10:45;;;;;;;;;;;;;;;21.76;60.10;101499.31;4952294;28;20220;-82
2023/05/08 09:13:12;;;;;;;;;;;;;;;21.70;57.53;101489.22;4947588;28;20400;-80
2023/05/08 09:15:39;;;;;;;;;;;;;;;21.85;59.44;101492.78;4941107;28;20414;-82
2023/05/08 09:18:06;;;;;;;;;;;;;;;21.81;59.46;101502.28;4944780;28;20215;-81
2023/05/08 09:20:33;;;;;;;;;;;;;;;21.98;60.64;101498.31;4953674;28;20127;-80
2023/05/08 09:23:04;;;;;;;;;;;;;;;21.69;57.45;101484.88;4961684;28;19922;-81
2023/05/08 09:25:44;;;;;;;;;;;;;;;21.69;56.95;101484.88;4959832;28;20405;-83
2023/05/08 09:28:18;;;;;;;;;;;;;;;21.74;57.18;101490.53;4932567;28;19946;-83
2023/05/08 09:30:50;;;;;;;;;;;;;;;21.88;58.63;101497.78;4920161;28;19937;-82
2023/05/08 09:33:19;;;;;;;;;;;;;;;21.90;58.73;101503.84;4897904;28;20397;-83
2023/05/08 09:35:47;;;;;;;;;;;;;;;21.92;58.55;101499.09;4972247;28;19925;-81
2023/05/08 09:38:35;;;;;;;;;;;;;;;21.91;57.52;101492.00;4947725;28;20068;-84
2023/05/08 09:41:08;;;;;;;;;;;;;;;21.83;59.41;101499.41;4963306;28;20203;-82
2023/05/08 09:44:03;;;;;;;;;;;;;;;21.77;58.84;101493.72;4935707;28;19992;-82
2023/05/08 09:46:30;;;;;;;;;;;;;;;21.80;60.15;101502.44;4942870;28;19929;-83
2023/05/08 09:48:57;;;;;;;;;;;;;;;21.93;60.21;101499.94;4929045;28;19932;-82
2023/05/08 09:51:25;;;;;;;;;;;;;;;22.00;60.46;101510.81;4952119;28;19972;-83
2023/05/08 09:53:52;;;;;;;;;;;;;;;22.18;59.71;101509.34;4979755;28;20019;-83
2023/05/08 09:56:34;;;;;;;;;;;;;;;21.88;57.14;101508.59;4955802;28;20017;-84
2023/05/08 09:59:02;;;;;;;;;;;;;;;21.95;60.27;101519.50;4938043;28;19969;-82
2023/05/08 10:01:33;;;;;;;;;;;;;;;21.83;57.26;101516.44;4942955;28;19926;-83
2023/05/08 10:04:01;;;;;;;;;;;;;;;22.06;59.25;101515.47;4924119;28;20134;-83
2023/05/08 10:06:28;;;;;;;;;;;;;;;22.02;59.34;101514.19;4902069;28;20476;-82
2023/05/08 10:09:07;;;;;;;;;;;;;;;22.35;58.41;101520.81;4907048;28;19930;-83
2023/05/08 10:11:33;;;;;;;;;;;;;;;22.19;56.83;101518.34;4922561;28;20367;-83
2023/05/08 10:14:00;;;;;;;;;;;;;;;22.34;57.66;101513.72;4926776;28;20471;-83
2023/05/08 10:16:28;;;;;;;;;;;;;;;22.35;58.42;101514.56;4954653;28;19964;-82
2023/05/08 10:19:04;;;;;;;;;;;;;;;22.55;58.23;101515.63;4945660;28;19952;-83
2023/05/08 10:21:38;;;;;;;;;;;;;;;22.71;58.48;101513.66;4979564;28;20000;-83
2023/05/08 10:24:10;;;;;;;;;;;;;;;22.67;57.87;101475.34;4967279;28;20331;-80
2023/05/08 10:26:41;;;;;;;;;;;;;;;22.82;56.93;101516.69;4948702;28;19922;-82
2023/05/08 10:29:32;;;;;;;;;;;;;;;23.12;56.96;101515.72;4921399;28;20371;-82
2023/05/08 10:32:01;;;;;;;;;;;;;;;23.23;53.08;101513.28;4937935;28;20360;-82
2023/05/08 10:34:30;;;;;;;;;;;;;;;23.16;53.55;101506.16;4935171;28;19923;-83
2023/05/08 10:37:00;;;;;;;;;;;;;;;23.14;54.08;101500.94;4935500;28;20269;-83
2023/05/08 10:39:27;;;;;;;;;;;;;;;23.19;55.30;101495.75;4945515;28;20111;-83
2023/05/08 10:41:54;;;;;;;;;;;;;;;23.48;55.46;101501.16;4934651;28;20361;-82
2023/05/08 10:44:21;;;;;;;;;;;;;;;23.65;55.14;101494.34;4954755;28;20393;-83
2023/05/08 10:46:59;;;;;;;;;;;;;;;23.68;53.93;101493.94;4943823;28;20402;-83
2023/05/08 10:49:34;;;;;;;;;;;;;;;23.49;53.20;101470.28;4929701;28;19929;-82
2023/05/08 10:52:15;;;;;;;;;;;;;;;23.48;53.16;101483.00;4965958;28;19925;-83
2023/05/08 10:55:03;;;;;;;;;;;;;;;23.58;52.42;101477.22;4958360;28;19925;-82
2023/05/08 10:57:30;;;;;;;;;;;;;;;23.48;53.16;101472.19;4935900;28;19926;-83
2023/05/08 10:59:57;;;;;;;;;;;;;;;23.45;53.15;101478.00;4948447;28;19972;-83
2023/05/08 11:02:30;;;;;;;;;;;;;;;23.56;53.90;101480.13;4930356;28;19930;-83
2023/05/08 11:05:16;;;;;;;;;;;;;;;23.30;54.60;101474.56;4958238;28;19933;-83
2023/05/08 11:07:52;;;;;;;;;;;;;;;23.20;52.61;101466.78;4943624;28;20429;-83
2023/05/08 11:10:28;;;;;;;;;;;;;;;23.08;55.28;101471.91;4934595;28;19926;-82
2023/05/08 11:12:56;;;;;;;;;;;;;;;23.01;54.79;101460.19;4941255;28;19928;-80
2023/05/08 11:15:38;;;;;;;;;;;;;;;22.98;55.21;101457.91;4945749;28;19969;-81
2023/05/08 11:18:05;;;;;;;;;;;;;;;23.24;55.72;101454.53;4936224;28;20194;-81
2023/05/08 11:20:53;;;;;;;;;;;;;;;23.39;54.61;101459.81;4941409;28;20013;-82
2023/05/08 11:23:29;;;;;;;;;;;;;;;23.27;54.92;101453.28;4926069;28;19926;-82
2023/05/08 11:26:03;;;;;;;;;;;;;;;23.35;55.26;101455.84;4943207;28;20413;-82
2023/05/08 11:28:33;;;;;;;;;;;;;;;23.30;54.25;101453.72;4909019;28;20491;-81
2023/05/08 11:31:05;;;;;;;;;;;;;;;23.37;53.96;101456.47;4929262;28;20211;-83
2023/05/08 11:33:39;;;;;;;;;;;;;;;23.57;54.80;101454.72;4938051;28;19922;-83
2023/05/08 11:36:12;;;;;;;;;;;;;;;23.68;53.35;101453.28;4929102;28;20372;-83
2023/05/08 11:38:39;;;;;;;;;;;;;;;23.59;52.62;101447.22;4932036;28;19922;-82
2023/05/08 11:41:06;;;;;;;;;;;;;;;23.66;53.57;101444.50;4927692;28;20489;-84
2023/05/08 11:43:37;;;;;;;;;;;;;;;23.49;53.94;101430.47;4922053;28;19930;-82
2023/05/08 11:46:16;;;;;;;;;;;;;;;23.63;54.24;101440.34;4928123;28;19945;-83
2023/05/08 11:48:43;;;;;;;;;;;;;;;23.32;52.89;101439.97;4914177;28;20157;-85
2023/05/08 11:51:20;;;;;;;;;;;;;;;23.35;55.41;101445.00;4914723;28;19940;-83
2023/05/08 11:53:47;;;;;;;;;;;;;;;;;;4919872;28;20394;-81
2023/05/08 11:56:15;;;;;;;;;;;;;;;23.55;53.46;101435.09;4929043;28;20209;-83
2023/05/08 11:58:41;;;;;;;;;;;;;;;23.79;53.38;101438.34;4926134;28;19922;-83
2023/05/08 12:01:09;;;;;;;;;;;;;;;23.75;51.42;101435.19;4917006;28;19925;-83
2023/05/08 12:03:37;;;;;;;;;;;;;;;23.82;51.71;101440.66;4927238;28;19922;-83
2023/05/08 12:06:03;;;;;;;;;;;;;;;23.71;51.81;101439.31;4903255;28;20567;-82
2023/05/08 12:08:30;;;;;;;;;;;;;;;23.78;52.73;101440.22;4897878;28;20374;-82
2023/05/08 12:10:57;;;;;;;;;;;;;;;23.97;51.51;101438.59;4903214;28;19922;-82
2023/05/08 12:13:28;;;;;;;;;;;;;;;24.17;50.67;101438.63;4894133;28;19926;-82
2023/05/08 12:15:56;;;;;;;;;;;;;;;24.35;50.61;101435.34;4887300;28;20124;-83
2023/05/08 12:18:27;;;;;;;;;;;;;;;24.27;51.13;101433.66;4878995;28;20149;-84
2023/05/08 12:21:04;;;;;;;;;;;;;;;23.68;50.90;101382.81;4901157;28;19925;-83
2023/05/08 12:23:35;;;;;;;;;;;;;;;23.46;52.54;101363.16;4887037;28;20248;-83
2023/05/08 12:26:07;;;;;;;;;;;;;;;23.68;53.16;101431.59;4884977;28;20135;-82
2023/05/08 12:28:33;;;;;;;;;;;;;;;23.68;53.37;101429.72;4918903;28;19964;-82
2023/05/08 12:31:04;;;;;;;;;;;;;;;23.57;53.24;101388.81;4907049;28;19925;-82
2023/05/08 12:33:37;;;;;;;;;;;;;;;23.62;53.66;101438.69;4921071;28;20001;-83
2023/05/08 12:36:05;;;;;;;;;;;;;;;23.61;52.60;101423.44;4892609;28;20381;-83
2023/05/08 12:38:32;;;;;;;;;;;;;;;23.55;53.77;101443.22;4894335;28;19933;-79
2023/05/08 12:41:03;;;;;;;;;;;;;;;22.98;54.40;101363.97;4923633;28;20008;-83
2023/05/08 12:43:30;;;;;;;;;;;;;;;23.38;54.98;101444.63;4932027;28;20323;-83
2023/05/08 12:45:58;;;;;;;;;;;;;;;23.63;53.02;101434.91;4933892;28;19964;-84
2023/05/08 12:48:27;;;;;;;;;;;;;;;23.60;53.95;101443.47;4947129;28;20011;-83
2023/05/08 12:51:00;;;;;;;;;;;;;;;23.29;54.80;101424.13;4936106;28;20054;-83
2023/05/08 12:53:34;;;;;;;;;;;;;;;23.59;53.81;101444.50;4939912;28;20610;-82